Time;durP1;ratioP1;P1;durP2;ratioP2;P2;SDS_P1;SDS_P2;PMS_P1;PMS_P2;Temp;Humidity;BMP_temperature;BMP_pressure;BME280_temperature;BME280_humidity;BME280_pressure;Samples;Min_cycle;Max_cycle;Signal;HPM_P1;HPM_P2
2023/03/10 00:00:43;;;;;;;27.02;5.18;;;;;;;;;;5079064;28;20041;-57
2023/03/10 00:03:10;;;;;;;20.75;6.63;;;;;;;;;;5081592;28;21403;-56
2023/03/10 00:05:36;;;;;;;26.58;7.25;;;;;;;;;;5076877;28;20044;-57
2023/03/10 00:08:02;;;;;;;32.28;7.13;;;;;;;;;;5074393;28;20053;-56
2023/03/10 00:10:28;;;;;;;21.20;6.13;;;;;;;;;;5079720;27;20047;-57
2023/03/10 00:12:54;;;;;;;23.45;6.05;;;;;;;;;;5078943;28;20079;-57
2023/03/10 00:15:22;;;;;;;23.52;5.75;;;;;;;;;;5078380;28;20056;-57
2023/03/10 00:17:54;;;;;;;20.70;7.38;;;;;;;;;;5072517;28;20060;-57
2023/03/10 00:20:20;;;;;;;19.27;3.90;;;;;;;;;;5079506;28;20036;-57
2023/03/10 00:22:46;;;;;;;18.73;7.32;;;;;;;;;;5078415;27;20548;-57
2023/03/10 00:25:14;;;;;;;16.88;4.28;;;;;;;;;;5077160;28;20143;-57
2023/03/10 00:27:40;;;;;;;19.42;4.05;;;;;;;;;;5079025;28;20201;-57
2023/03/10 00:30:06;;;;;;;30.20;8.48;;;;;;;;;;5077488;28;20563;-57
2023/03/10 00:32:34;;;;;;;8.82;3.65;;;;;;;;;;5078377;28;20120;-57
2023/03/10 00:35:00;;;;;;;14.43;5.90;;;;;;;;;;5083534;28;20075;-57
2023/03/10 00:37:26;;;;;;;16.60;3.58;;;;;;;;;;5081559;28;20048;-57
2023/03/10 00:39:54;;;;;;;16.73;5.10;;;;;;;;;;5085023;28;20044;-57
2023/03/10 00:42:20;;;;;;;19.20;5.95;;;;;;;;;;5083078;28;20049;-57
2023/03/10 00:44:46;;;;;;;16.33;4.95;;;;;;;;;;5083598;28;20036;-57
2023/03/10 00:47:13;;;;;;;14.68;4.38;;;;;;;;;;5081801;28;20035;-57
2023/03/10 00:49:39;;;;;;;28.17;9.00;;;;;;;;;;5083512;28;20260;-57
2023/03/10 00:52:05;;;;;;;18.60;6.75;;;;;;;;;;5080883;28;20091;-57
2023/03/10 00:54:31;;;;;;;13.90;5.00;;;;;;;;;;5083579;28;20160;-57
2023/03/10 00:56:57;;;;;;;13.05;3.97;;;;;;;;;;5083002;28;20040;-57
2023/03/10 00:59:24;;;;;;;38.45;7.13;;;;;;;;;;5079584;28;20151;-57
2023/03/10 01:01:50;;;;;;;25.00;4.97;;;;;;;;;;5081218;28;20037;-57
2023/03/10 01:04:18;;;;;;;18.17;7.47;;;;;;;;;;5082861;27;20044;-57
2023/03/10 01:06:46;;;;;;;21.88;5.63;;;;;;;;;;5083281;28;20045;-57
2023/03/10 01:09:12;;;;;;;16.02;5.07;;;;;;;;;;5082920;28;20048;-57
2023/03/10 01:11:39;;;;;;;27.38;5.50;;;;;;;;;;5083582;28;20037;-57
2023/03/10 01:14:06;;;;;;;23.50;7.22;;;;;;;;;;5080139;28;20095;-57
2023/03/10 01:16:32;;;;;;;18.90;5.68;;;;;;;;;;5079690;28;20576;-57
2023/03/10 01:18:58;;;;;;;23.25;7.28;;;;;;;;;;5082075;28;20044;-57
2023/03/10 01:21:26;;;;;;;11.60;5.93;;;;;;;;;;5080863;28;20044;-57
2023/03/10 01:23:53;;;;;;;12.90;3.42;;;;;;;;;;5084461;28;20489;-57
2023/03/10 01:26:19;;;;;;;9.95;3.90;;;;;;;;;;5082287;27;20449;-57
2023/03/10 01:28:45;;;;;;;19.45;5.88;;;;;;;;;;5083583;28;20066;-57
2023/03/10 01:31:11;;;;;;;24.98;5.03;;;;;;;;;;5083147;28;20526;-57
2023/03/10 01:33:39;;;;;;;15.23;5.03;;;;;;;;;;5081612;28;20044;-57
2023/03/10 01:36:14;;;;;;;20.17;5.40;;;;;;;;;;5081127;28;21343;-57
2023/03/10 01:38:41;;;;;;;17.30;3.70;;;;;;;;;;5081833;28;20051;-57
2023/03/10 01:41:07;;;;;;;15.52;3.22;;;;;;;;;;5084760;28;20044;-57
2023/03/10 01:43:34;;;;;;;18.10;5.32;;;;;;;;;;5077379;28;20044;-57
2023/03/10 01:46:00;;;;;;;16.75;5.60;;;;;;;;;;5082771;28;20068;-57
2023/03/10 01:48:27;;;;;;;19.02;3.63;;;;;;;;;;5081482;28;20043;-57
2023/03/10 01:50:55;;;;;;;21.17;6.22;;;;;;;;;;5081686;28;20519;-57
2023/03/10 01:53:22;;;;;;;24.63;5.35;;;;;;;;;;5078172;28;20048;-57
2023/03/10 01:55:51;;;;;;;24.02;5.10;;;;;;;;;;5082706;28;20043;-57
2023/03/10 01:58:17;;;;;;;15.73;4.22;;;;;;;;;;5081194;28;20044;-56
2023/03/10 02:00:44;;;;;;;21.88;5.60;;;;;;;;;;5077107;28;20480;-57
2023/03/10 02:03:10;;;;;;;15.93;3.53;;;;;;;;;;5081125;28;20047;-57
2023/03/10 02:05:38;;;;;;;30.08;6.43;;;;;;;;;;5081758;28;20055;-57
2023/03/10 02:08:04;;;;;;;17.92;4.18;;;;;;;;;;5080364;27;20041;-58
2023/03/10 02:10:30;;;;;;;6.75;2.35;;;;;;;;;;5081486;28;20121;-57
2023/03/10 02:12:57;;;;;;;13.48;4.97;;;;;;;;;;5080571;28;20048;-57
2023/03/10 02:15:23;;;;;;;21.17;4.50;;;;;;;;;;5083001;28;20068;-57
2023/03/10 02:17:50;;;;;;;25.70;6.20;;;;;;;;;;5081522;28;20036;-57
2023/03/10 02:20:23;;;;;;;25.77;7.18;;;;;;;;;;5080837;28;20036;-57
2023/03/10 02:22:50;;;;;;;13.10;4.35;;;;;;;;;;5077063;28;20500;-57
2023/03/10 02:25:25;;;;;;;8.00;3.80;;;;;;;;;;5079331;28;20051;-57
2023/03/10 02:27:51;;;;;;;28.65;7.85;;;;;;;;;;5081057;28;20037;-56
2023/03/10 02:30:30;;;;;;;18.48;3.72;;;;;;;;;;5077915;28;20043;-58
2023/03/10 02:32:59;;;;;;;32.55;6.70;;;;;;;;;;5077867;28;20047;-57
2023/03/10 02:35:25;;;;;;;29.92;8.73;;;;;;;;;;5075765;28;20071;-57
2023/03/10 02:37:52;;;;;;;22.77;7.50;;;;;;;;;;5080940;28;20594;-57
2023/03/10 02:40:24;;;;;;;14.40;3.22;;;;;;;;;;5080593;28;20044;-57
2023/03/10 02:42:50;;;;;;;;;;;;;;;;;;5079667;28;20818;-57
2023/03/10 02:45:16;;;;;;;14.75;4.72;;;;;;;;;;5078513;28;19920;-57
2023/03/10 02:47:42;;;;;;;24.20;4.75;;;;;;;;;;5082887;28;20044;-57
2023/03/10 02:50:10;;;;;;;13.80;4.93;;;;;;;;;;5082730;28;20720;-57
2023/03/10 02:52:47;;;;;;;14.48;3.20;;;;;;;;;;5081779;28;20049;-57
2023/03/10 02:55:17;;;;;;;13.05;4.05;;;;;;;;;;5081352;27;20045;-57
2023/03/10 02:57:43;;;;;;;10.10;2.75;;;;;;;;;;5078299;28;20095;-57
2023/03/10 03:00:10;;;;;;;9.65;2.97;;;;;;;;;;5081949;28;20044;-56
2023/03/10 03:02:36;;;;;;;14.35;3.50;;;;;;;;;;5076758;28;20079;-57
2023/03/10 03:05:03;;;;;;;12.70;3.63;;;;;;;;;;5078094;28;20687;-57
2023/03/10 03:07:29;;;;;;;6.95;2.33;;;;;;;;;;5079313;28;20071;-57
2023/03/10 03:09:55;;;;;;;12.30;2.95;;;;;;;;;;5082131;28;20604;-57
2023/03/10 03:12:21;;;;;;;8.98;2.67;;;;;;;;;;5077574;28;20045;-57
2023/03/10 03:14:47;;;;;;;12.45;2.47;;;;;;;;;;5078010;28;20048;-57
2023/03/10 03:17:13;;;;;;;7.30;2.03;;;;;;;;;;5075693;28;20049;-57
2023/03/10 03:19:40;;;;;;;6.50;2.45;;;;;;;;;;5077900;28;20040;-57
2023/03/10 03:22:06;;;;;;;13.55;4.18;;;;;;;;;;5079664;28;20619;-57
2023/03/10 03:24:32;;;;;;;8.13;2.78;;;;;;;;;;5077180;28;20491;-57
2023/03/10 03:26:58;;;;;;;18.83;3.50;;;;;;;;;;5078387;28;20040;-57
2023/03/10 03:29:24;;;;;;;10.93;2.67;;;;;;;;;;5077835;28;20087;-57
2023/03/10 03:31:51;;;;;;;12.13;3.58;;;;;;;;;;5079116;28;20044;-57
2023/03/10 03:34:19;;;;;;;6.88;2.88;;;;;;;;;;5079076;27;20040;-57
2023/03/10 03:36:45;;;;;;;8.60;3.35;;;;;;;;;;5076849;27;20041;-57
2023/03/10 03:39:16;;;;;;;12.18;3.65;;;;;;;;;;5077746;28;20128;-57
2023/03/10 03:41:42;;;;;;;5.93;1.88;;;;;;;;;;5078114;28;20089;-58
2023/03/10 03:44:08;;;;;;;8.02;2.42;;;;;;;;;;5077095;28;20065;-57
2023/03/10 03:46:34;;;;;;;15.27;3.78;;;;;;;;;;5077508;27;20108;-57
2023/03/10 03:49:00;;;;;;;6.60;3.13;;;;;;;;;;5079246;28;20028;-59
2023/03/10 03:51:27;;;;;;;6.78;2.40;;;;;;;;;;5074215;28;20094;-57
2023/03/10 03:53:53;;;;;;;8.18;2.28;;;;;;;;;;5073538;28;20060;-57
2023/03/10 03:56:19;;;;;;;12.80;3.45;;;;;;;;;;5078622;28;20048;-59
2023/03/10 03:58:45;;;;;;;7.22;1.90;;;;;;;;;;5074261;28;20158;-57
2023/03/10 04:01:11;;;;;;;10.48;2.80;;;;;;;;;;5075151;28;20075;-57
2023/03/10 04:03:38;;;;;;;4.95;1.65;;;;;;;;;;5077141;28;20047;-57
2023/03/10 04:06:06;;;;;;;4.55;1.95;;;;;;;;;;5075198;28;21494;-57
2023/03/10 04:08:32;;;;;;;7.10;1.50;;;;;;;;;;5080908;28;20084;-57
2023/03/10 04:10:58;;;;;;;6.78;2.22;;;;;;;;;;5078663;28;20053;-57
2023/03/10 04:13:24;;;;;;;7.80;3.05;;;;;;;;;;5080099;28;20044;-57
2023/03/10 04:15:55;;;;;;;7.53;1.85;;;;;;;;;;5083113;27;20044;-57
2023/03/10 04:18:21;;;;;;;3.72;1.60;;;;;;;;;;5081712;28;20040;-57
2023/03/10 04:20:47;;;;;;;8.82;3.10;;;;;;;;;;5081539;28;20059;-56
2023/03/10 04:23:14;;;;;;;7.95;1.92;;;;;;;;;;5081264;28;20040;-57
2023/03/10 04:25:42;;;;;;;11.07;2.90;;;;;;;;;;5080898;28;20037;-57
2023/03/10 04:28:08;;;;;;;8.48;2.03;;;;;;;;;;5079009;28;20068;-56
2023/03/10 04:30:34;;;;;;;5.97;2.60;;;;;;;;;;5082483;28;20044;-56
2023/03/10 04:33:00;;;;;;;4.85;1.58;;;;;;;;;;5082138;28;20041;-57
2023/03/10 04:35:27;;;;;;;3.08;1.77;;;;;;;;;;5080963;28;20043;-57
2023/03/10 04:37:53;;;;;;;3.85;1.20;;;;;;;;;;5083124;28;20044;-57
2023/03/10 04:40:19;;;;;;;7.20;2.15;;;;;;;;;;5081827;28;20127;-57
2023/03/10 04:42:45;;;;;;;6.28;1.40;;;;;;;;;;5084284;28;20043;-57
2023/03/10 04:45:11;;;;;;;7.25;1.67;;;;;;;;;;5084387;28;20091;-57
2023/03/10 04:47:38;;;;;;;4.72;1.88;;;;;;;;;;5081573;28;20059;-57
2023/03/10 04:50:04;;;;;;;4.45;1.58;;;;;;;;;;5083492;28;20120;-57
2023/03/10 04:52:30;;;;;;;2.92;1.88;;;;;;;;;;5080180;28;20041;-57
2023/03/10 04:54:56;;;;;;;3.75;1.67;;;;;;;;;;5083086;28;20143;-57
2023/03/10 04:57:23;;;;;;;8.77;1.85;;;;;;;;;;5085307;28;20064;-57
2023/03/10 04:59:49;;;;;;;4.13;2.90;;;;;;;;;;5081738;28;20551;-57
2023/03/10 05:02:15;;;;;;;4.45;1.45;;;;;;;;;;5083378;28;20036;-57
2023/03/10 05:04:42;;;;;;;4.35;1.40;;;;;;;;;;5081024;28;20065;-57
2023/03/10 05:07:08;;;;;;;8.20;2.72;;;;;;;;;;5083512;28;20044;-57
2023/03/10 05:09:35;;;;;;;9.70;2.13;;;;;;;;;;5083663;28;20040;-57
2023/03/10 05:12:01;;;;;;;6.28;1.40;;;;;;;;;;5083379;28;20087;-57
2023/03/10 05:14:28;;;;;;;4.65;1.80;;;;;;;;;;5084925;28;20941;-56
2023/03/10 05:16:54;;;;;;;3.38;1.30;;;;;;;;;;5082711;28;20131;-57
2023/03/10 05:19:21;;;;;;;1.75;1.08;;;;;;;;;;5081114;28;20063;-57
2023/03/10 05:21:47;;;;;;;4.63;1.25;;;;;;;;;;5082248;28;20045;-56
2023/03/10 05:24:13;;;;;;;4.45;1.00;;;;;;;;;;5083355;28;20083;-57
2023/03/10 05:26:40;;;;;;;2.20;0.70;;;;;;;;;;5082441;28;20062;-57
2023/03/10 05:29:06;;;;;;;1.13;0.98;;;;;;;;;;5082345;28;20128;-57
2023/03/10 05:31:32;;;;;;;3.25;0.80;;;;;;;;;;5082394;28;20040;-57
2023/03/10 05:33:58;;;;;;;4.28;0.80;;;;;;;;;;5081417;28;20082;-57
2023/03/10 05:36:25;;;;;;;4.00;1.00;;;;;;;;;;5080517;28;20078;-57
2023/03/10 05:38:51;;;;;;;4.30;1.33;;;;;;;;;;5081809;28;20192;-57
2023/03/10 05:41:17;;;;;;;1.02;0.60;;;;;;;;;;5082138;28;20523;-57
2023/03/10 05:43:43;;;;;;;3.92;0.80;;;;;;;;;;5083346;28;20198;-57
2023/03/10 05:46:10;;;;;;;1.40;0.50;;;;;;;;;;5082312;28;20055;-57
2023/03/10 05:48:36;;;;;;;2.03;0.60;;;;;;;;;;5077827;28;20956;-57
2023/03/10 05:51:06;;;;;;;2.55;1.00;;;;;;;;;;5081797;28;20086;-56
2023/03/10 05:53:34;;;;;;;1.15;0.60;;;;;;;;;;5082524;28;20119;-57
2023/03/10 05:56:03;;;;;;;1.35;0.95;;;;;;;;;;5081461;28;20052;-57
2023/03/10 05:58:30;;;;;;;0.50;0.50;;;;;;;;;;5081058;28;20102;-57
2023/03/10 06:00:56;;;;;;;1.38;0.40;;;;;;;;;;5081089;28;20410;-57
2023/03/10 06:03:22;;;;;;;0.93;0.80;;;;;;;;;;5080239;28;20119;-57
2023/03/10 06:05:49;;;;;;;0.98;0.52;;;;;;;;;;5073047;28;20047;-57
2023/03/10 06:08:15;;;;;;;0.77;0.60;;;;;;;;;;5075356;28;20411;-57
2023/03/10 06:10:41;;;;;;;1.42;0.80;;;;;;;;;;5072829;28;20041;-57
2023/03/10 06:13:07;;;;;;;1.40;0.80;;;;;;;;;;5075237;28;20040;-57
2023/03/10 06:15:33;;;;;;;1.42;0.90;;;;;;;;;;5077049;28;20049;-57
2023/03/10 06:17:59;;;;;;;1.40;0.80;;;;;;;;;;5080740;28;20048;-57
2023/03/10 06:20:26;;;;;;;1.65;1.48;;;;;;;;;;5077637;28;20067;-57
2023/03/10 06:22:52;;;;;;;1.25;0.77;;;;;;;;;;5080188;28;20033;-57
2023/03/10 06:25:18;;;;;;;1.50;0.70;;;;;;;;;;5082749;28;20048;-57
2023/03/10 06:27:44;;;;;;;1.75;1.25;;;;;;;;;;5076536;28;20044;-57
2023/03/10 06:30:11;;;;;;;2.03;0.75;;;;;;;;;;5075764;28;20036;-57
2023/03/10 06:32:37;;;;;;;1.35;0.73;;;;;;;;;;5075995;28;20045;-57
2023/03/10 06:35:03;;;;;;;0.95;0.47;;;;;;;;;;5075700;28;20041;-57
2023/03/10 06:37:29;;;;;;;0.43;0.43;;;;;;;;;;5080672;28;20568;-57
2023/03/10 06:39:55;;;;;;;1.00;0.70;;;;;;;;;;5075074;28;20143;-57
2023/03/10 06:42:21;;;;;;;0.68;0.50;;;;;;;;;;5076692;28;20123;-57
2023/03/10 06:44:47;;;;;;;0.40;0.40;;;;;;;;;;5081869;28;20048;-57
2023/03/10 06:47:14;;;;;;;0.28;0.28;;;;;;;;;;5078147;28;20920;-57
2023/03/10 06:49:40;;;;;;;1.88;0.93;;;;;;;;;;5071845;28;21170;-57
2023/03/10 06:52:06;;;;;;;1.67;0.70;;;;;;;;;;5075142;28;20036;-57
2023/03/10 06:54:32;;;;;;;1.05;0.47;;;;;;;;;;5075950;28;20127;-57
2023/03/10 06:56:58;;;;;;;1.77;0.52;;;;;;;;;;5074158;28;20102;-56
2023/03/10 06:59:24;;;;;;;2.47;0.68;;;;;;;;;;5076006;28;20048;-56
2023/03/10 07:01:50;;;;;;;0.32;0.30;;;;;;;;;;5078640;28;20041;-57
2023/03/10 07:04:16;;;;;;;1.98;0.60;;;;;;;;;;5078487;28;20047;-57
2023/03/10 07:06:42;;;;;;;1.08;0.80;;;;;;;;;;5080367;28;20040;-56
2023/03/10 07:09:08;;;;;;;2.08;0.57;;;;;;;;;;5073602;28;20041;-57
2023/03/10 07:11:35;;;;;;;1.48;0.82;;;;;;;;;;5076383;28;20044;-57
2023/03/10 07:14:01;;;;;;;1.02;0.70;;;;;;;;;;5074967;28;20093;-57
2023/03/10 07:16:27;;;;;;;2.45;0.82;;;;;;;;;;5078379;28;21170;-57
2023/03/10 07:18:53;;;;;;;5.07;1.20;;;;;;;;;;5079003;28;20048;-57
2023/03/10 07:21:19;;;;;;;1.92;1.02;;;;;;;;;;5080115;28;20033;-56
2023/03/10 07:23:46;;;;;;;1.02;0.85;;;;;;;;;;5077899;28;20172;-57
2023/03/10 07:26:17;;;;;;;3.10;1.27;;;;;;;;;;5079127;27;20426;-57
2023/03/10 07:28:43;;;;;;;2.05;0.65;;;;;;;;;;5078210;28;20868;-57
2023/03/10 07:31:11;;;;;;;2.28;0.82;;;;;;;;;;5077963;28;20547;-57
2023/03/10 07:33:37;;;;;;;0.90;0.60;;;;;;;;;;5077740;28;20047;-57
2023/03/10 07:36:08;;;;;;;1.25;0.70;;;;;;;;;;5072421;28;20049;-57
2023/03/10 07:38:34;;;;;;;2.85;1.00;;;;;;;;;;5070169;28;20048;-57
2023/03/10 07:41:00;;;;;;;3.00;0.70;;;;;;;;;;5077291;27;20044;-57
2023/03/10 07:43:26;;;;;;;1.42;0.80;;;;;;;;;;5068985;27;20037;-57
2023/03/10 07:45:52;;;;;;;2.17;1.45;;;;;;;;;;5077885;28;20087;-57
2023/03/10 07:48:18;;;;;;;1.92;1.00;;;;;;;;;;5081038;28;20055;-57
2023/03/10 07:50:44;;;;;;;1.65;0.88;;;;;;;;;;5080405;28;20090;-56
2023/03/10 07:53:10;;;;;;;2.10;0.88;;;;;;;;;;5081478;28;21017;-57
2023/03/10 07:55:37;;;;;;;3.65;0.95;;;;;;;;;;5080887;28;20539;-57
2023/03/10 07:58:03;;;;;;;1.60;0.85;;;;;;;;;;5079193;28;20036;-56
2023/03/10 08:00:29;;;;;;;0.75;0.57;;;;;;;;;;5080477;28;20044;-57
2023/03/10 08:02:55;;;;;;;7.10;1.13;;;;;;;;;;5080732;28;20036;-57
2023/03/10 08:05:21;;;;;;;6.03;2.78;;;;;;;;;;5080206;28;20052;-57
2023/03/10 08:07:47;;;;;;;2.40;1.05;;;;;;;;;;5079834;28;20036;-57
2023/03/10 08:10:13;;;;;;;2.47;0.93;;;;;;;;;;5083719;28;20055;-58
2023/03/10 08:12:40;;;;;;;2.72;0.65;;;;;;;;;;5083835;28;20083;-57
2023/03/10 08:15:06;;;;;;;2.78;1.10;;;;;;;;;;5079031;28;20085;-57
2023/03/10 08:17:32;;;;;;;7.50;2.20;;;;;;;;;;5077664;28;20067;-57
2023/03/10 08:19:59;;;;;;;3.50;1.58;;;;;;;;;;5077188;28;20523;-57
2023/03/10 08:22:26;;;;;;;3.47;1.05;;;;;;;;;;5081457;28;20191;-56
2023/03/10 08:24:52;;;;;;;5.22;1.77;;;;;;;;;;5078983;28;20051;-57
2023/03/10 08:27:18;;;;;;;2.53;0.75;;;;;;;;;;5081794;28;20780;-57
2023/03/10 08:29:44;;;;;;;1.08;0.95;;;;;;;;;;5082871;28;20194;-57
2023/03/10 08:32:11;;;;;;;2.50;0.88;;;;;;;;;;5081552;28;20032;-57
2023/03/10 08:34:37;;;;;;;1.45;0.85;;;;;;;;;;5082065;27;20045;-58
2023/03/10 08:37:03;;;;;;;3.25;1.05;;;;;;;;;;5079026;28;20185;-56
2023/03/10 08:39:29;;;;;;;2.30;1.77;;;;;;;;;;5082466;28;20052;-57
2023/03/10 08:41:55;;;;;;;4.95;1.08;;;;;;;;;;5079941;28;20575;-56
2023/03/10 08:44:22;;;;;;;2.90;1.08;;;;;;;;;;5082393;28;21094;-57
2023/03/10 08:46:49;;;;;;;4.63;1.52;;;;;;;;;;5081701;28;20094;-57
2023/03/10 08:49:16;;;;;;;3.75;1.65;;;;;;;;;;5082834;28;20044;-57
2023/03/10 08:51:42;;;;;;;8.05;1.58;;;;;;;;;;5080834;28;20585;-57
2023/03/10 08:54:10;;;;;;;5.38;1.13;;;;;;;;;;5080947;28;20044;-56
2023/03/10 08:56:36;;;;;;;4.95;1.10;;;;;;;;;;5083388;28;20060;-57
2023/03/10 08:59:02;;;;;;;4.07;1.48;;;;;;;;;;5081478;28;20068;-57
2023/03/10 09:01:29;;;;;;;4.45;1.70;;;;;;;;;;5084688;28;20044;-57
2023/03/10 09:03:56;;;;;;;1.95;0.82;;;;;;;;;;5083658;28;20051;-56
2023/03/10 09:06:22;;;;;;;4.68;1.40;;;;;;;;;;5084581;28;20044;-57
2023/03/10 09:08:49;;;;;;;6.80;2.67;;;;;;;;;;5082687;28;20047;-57
2023/03/10 09:11:17;;;;;;;4.35;1.30;;;;;;;;;;5082719;28;20041;-57
2023/03/10 09:13:43;;;;;;;5.40;1.77;;;;;;;;;;5085247;28;20040;-58
2023/03/10 09:16:09;;;;;;;4.63;2.22;;;;;;;;;;5083765;28;20048;-57
2023/03/10 09:18:35;;;;;;;6.47;1.95;;;;;;;;;;5085207;28;20880;-57
2023/03/10 09:21:02;;;;;;;3.67;1.30;;;;;;;;;;5083900;28;20037;-57
2023/03/10 09:23:28;;;;;;;9.18;2.03;;;;;;;;;;5082772;28;20474;-58
2023/03/10 09:25:54;;;;;;;9.20;3.30;;;;;;;;;;5083600;28;20045;-57
2023/03/10 09:28:20;;;;;;;4.93;2.75;;;;;;;;;;5081490;28;20036;-57
2023/03/10 09:30:47;;;;;;;7.90;1.92;;;;;;;;;;5081712;28;20082;-57
2023/03/10 09:33:22;;;;;;;3.90;1.48;;;;;;;;;;5081333;28;20075;-57
2023/03/10 09:35:50;;;;;;;5.07;1.75;;;;;;;;;;5082767;28;20193;-57
2023/03/10 09:38:16;;;;;;;5.43;2.15;;;;;;;;;;5081833;28;20036;-57
2023/03/10 09:40:45;;;;;;;5.18;1.70;;;;;;;;;;5081699;28;20036;-57
2023/03/10 09:43:14;;;;;;;10.13;3.38;;;;;;;;;;5082540;28;20064;-58
2023/03/10 09:45:46;;;;;;;9.10;2.55;;;;;;;;;;5083634;28;20044;-57
2023/03/10 09:48:21;;;;;;;7.40;2.22;;;;;;;;;;5083913;28;20044;-57
2023/03/10 09:50:48;;;;;;;7.88;1.75;;;;;;;;;;5083669;28;20040;-57
2023/03/10 09:53:33;;;;;;;6.43;1.70;;;;;;;;;;5079926;28;20082;-57
2023/03/10 09:55:59;;;;;;;5.65;1.35;;;;;;;;;;5078454;28;20611;-57
2023/03/10 09:58:40;;;;;;;6.88;1.52;;;;;;;;;;5080695;28;20040;-57
2023/03/10 10:01:12;;;;;;;12.93;2.17;;;;;;;;;;5081993;28;20048;-57
2023/03/10 10:03:48;;;;;;;9.48;1.95;;;;;;;;;;5083997;28;20817;-57
2023/03/10 10:06:18;;;;;;;7.53;2.83;;;;;;;;;;5081690;28;20546;-57
2023/03/10 10:08:50;;;;;;;10.18;2.38;;;;;;;;;;5083014;28;20044;-58
2023/03/10 10:11:17;;;;;;;7.22;2.20;;;;;;;;;;5084683;28;20047;-57
2023/03/10 10:13:43;;;;;;;12.02;4.35;;;;;;;;;;5082914;28;20083;-57
2023/03/10 10:16:30;;;;;;;3.97;1.30;;;;;;;;;;5081522;28;20114;-57
2023/03/10 10:19:25;;;;;;;6.50;1.70;;;;;;;;;;5083508;28;20048;-57
2023/03/10 10:21:59;;;;;;;10.23;2.67;;;;;;;;;;5070866;28;20618;-57
2023/03/10 10:24:25;;;;;;;4.40;1.23;;;;;;;;;;5081974;28;20075;-57
2023/03/10 10:26:51;;;;;;;7.10;3.13;;;;;;;;;;5082109;28;20040;-57
2023/03/10 10:29:31;;;;;;;9.32;2.50;;;;;;;;;;5078496;28;20036;-57
2023/03/10 10:32:17;;;;;;;15.20;3.35;;;;;;;;;;5083844;28;20554;-57
2023/03/10 10:34:46;;;;;;;11.25;4.68;;;;;;;;;;5081593;28;20163;-57
2023/03/10 10:37:23;;;;;;;10.65;3.20;;;;;;;;;;5082780;27;20036;-57
2023/03/10 10:39:50;;;;;;;10.45;3.15;;;;;;;;;;5081912;27;20040;-57
2023/03/10 10:42:30;;;;;;;10.75;3.20;;;;;;;;;;5082862;28;20051;-57
2023/03/10 10:45:01;;;;;;;12.77;2.42;;;;;;;;;;5083630;28;20081;-56
2023/03/10 10:47:34;;;;;;;7.20;1.55;;;;;;;;;;5080559;27;20049;-57
2023/03/10 10:50:15;;;;;;;5.55;1.92;;;;;;;;;;5077507;28;20075;-57
2023/03/10 10:52:41;;;;;;;7.10;1.92;;;;;;;;;;5080552;28;20198;-57
2023/03/10 10:55:21;;;;;;;13.02;2.70;;;;;;;;;;5080042;28;20044;-57
2023/03/10 10:57:53;;;;;;;6.88;2.00;;;;;;;;;;5081900;28;20036;-57
2023/03/10 11:00:19;;;;;;;7.65;2.22;;;;;;;;;;5084478;28;20489;-57
2023/03/10 11:02:46;;;;;;;11.40;3.75;;;;;;;;;;5081712;28;20048;-57
2023/03/10 11:05:12;;;;;;;11.95;2.55;;;;;;;;;;5081967;28;20533;-57
2023/03/10 11:07:38;;;;;;;11.45;2.55;;;;;;;;;;5081329;28;20129;-57
2023/03/10 11:10:14;;;;;;;11.93;2.35;;;;;;;;;;5083711;28;20044;-57
2023/03/10 11:13:00;;;;;;;5.40;2.30;;;;;;;;;;5080308;28;20036;-57
2023/03/10 11:15:37;;;;;;;4.47;2.53;;;;;;;;;;5081543;28;20141;-58
2023/03/10 11:18:03;;;;;;;5.28;2.10;;;;;;;;;;5079848;28;20071;-57
2023/03/10 11:20:33;;;;;;;3.92;1.80;;;;;;;;;;5079351;28;20202;-58
2023/03/10 11:23:06;;;;;;;10.35;4.05;;;;;;;;;;5081590;28;20041;-57
2023/03/10 11:25:42;;;;;;;6.32;2.58;;;;;;;;;;5082080;28;20094;-57
2023/03/10 11:28:20;;;;;;;10.73;2.63;;;;;;;;;;5081604;28;20048;-57
2023/03/10 11:30:55;;;;;;;14.77;3.65;;;;;;;;;;5081602;28;20032;-57
2023/03/10 11:33:27;;;;;;;9.13;3.08;;;;;;;;;;5082569;28;20127;-57
2023/03/10 11:35:56;;;;;;;6.78;2.88;;;;;;;;;;5081374;28;20119;-57
2023/03/10 11:38:28;;;;;;;8.20;1.33;;;;;;;;;;5084261;28;20036;-57
2023/03/10 11:40:57;;;;;;;6.63;2.38;;;;;;;;;;5083584;28;20111;-57
2023/03/10 11:43:23;;;;;;;11.13;2.13;;;;;;;;;;5083258;27;20075;-57
2023/03/10 11:45:53;;;;;;;7.75;2.25;;;;;;;;;;5083524;28;20049;-57
2023/03/10 11:48:29;;;;;;;6.97;2.00;;;;;;;;;;5080863;28;20044;-57
2023/03/10 11:51:03;;;;;;;4.20;1.95;;;;;;;;;;5078690;28;20041;-57
2023/03/10 11:53:35;;;;;;;5.72;1.40;;;;;;;;;;5082382;28;20036;-57
2023/03/10 11:56:01;;;;;;;;;;;;;;;;;;5083498;28;20090;-57
2023/03/10 11:58:42;;;;;;;8.90;1.90;;;;;;;;;;5081293;28;20912;-57
2023/03/10 12:01:09;;;;;;;3.63;1.65;;;;;;;;;;5076628;28;20037;-57
2023/03/10 12:03:43;;;;;;;4.68;1.98;;;;;;;;;;5077343;28;20576;-57
2023/03/10 12:06:12;;;;;;;6.20;2.03;;;;;;;;;;5079220;28;20105;-57
2023/03/10 12:08:39;;;;;;;6.50;1.80;;;;;;;;;;5081757;28;20558;-57
2023/03/10 12:11:11;;;;;;;6.45;1.88;;;;;;;;;;5081188;28;20037;-57
2023/03/10 12:13:44;;;;;;;8.30;2.00;;;;;;;;;;5082974;28;20572;-57
2023/03/10 12:16:12;;;;;;;4.60;1.92;;;;;;;;;;5076414;28;22633;-57
2023/03/10 12:18:38;;;;;;;5.50;2.17;;;;;;;;;;5080372;28;20111;-58
2023/03/10 12:21:18;;;;;;;9.70;1.83;;;;;;;;;;5080967;27;20064;-57
2023/03/10 12:23:45;;;;;;;5.00;1.40;;;;;;;;;;5080433;28;20036;-58
2023/03/10 12:26:12;;;;;;;4.18;1.48;;;;;;;;;;5078132;28;20044;-57
2023/03/10 12:28:38;;;;;;;3.30;1.20;;;;;;;;;;5081776;28;20101;-57
2023/03/10 12:31:05;;;;;;;6.28;1.75;;;;;;;;;;5085953;28;20136;-58
2023/03/10 12:36:15;;;;;;;6.53;1.67;;;;;;;;;;5084299;28;20044;-57
2023/03/10 12:38:43;;;;;;;7.22;2.38;;;;;;;;;;5084187;28;20932;-57
2023/03/10 12:41:09;;;;;;;5.72;1.33;;;;;;;;;;5085599;28;20103;-57
2023/03/10 12:43:48;;;;;;;13.85;3.15;;;;;;;;;;5085449;28;20198;-57
2023/03/10 12:46:19;;;;;;;4.95;1.98;;;;;;;;;;5084649;28;20046;-57
2023/03/10 12:48:47;;;;;;;8.13;1.10;;;;;;;;;;5083471;28;20139;-57
2023/03/10 12:51:22;;;;;;;5.60;1.75;;;;;;;;;;5084481;28;20052;-57
2023/03/10 12:53:51;;;;;;;6.57;1.52;;;;;;;;;;5085307;27;20640;-57
2023/03/10 12:56:22;;;;;;;6.40;1.40;;;;;;;;;;5085202;28;20463;-57
2023/03/10 12:59:01;;;;;;;10.25;2.97;;;;;;;;;;5081238;28;20470;-57
2023/03/10 13:01:31;;;;;;;5.00;2.50;;;;;;;;;;5085071;28;20119;-57
2023/03/10 13:03:57;;;;;;;4.72;1.42;;;;;;;;;;5080779;28;20041;-57
2023/03/10 13:06:27;;;;;;;3.17;1.30;;;;;;;;;;5083885;27;21394;-58
2023/03/10 13:09:15;;;;;;;4.70;1.33;;;;;;;;;;5083268;28;20051;-57
2023/03/10 13:11:48;;;;;;;4.65;1.70;;;;;;;;;;5085200;28;20083;-57
2023/03/10 13:14:16;;;;;;;8.40;2.75;;;;;;;;;;5084028;28;20044;-57
2023/03/10 13:16:52;;;;;;;3.22;1.42;;;;;;;;;;5082457;28;20056;-57
2023/03/10 13:19:22;;;;;;;8.88;3.40;;;;;;;;;;5083761;28;20041;-57
2023/03/10 13:21:49;;;;;;;5.32;1.90;;;;;;;;;;5085391;28;20044;-57
2023/03/10 13:24:26;;;;;;;4.70;1.55;;;;;;;;;;5082485;28;20040;-57
2023/03/10 13:27:11;;;;;;;6.75;1.60;;;;;;;;;;5085244;28;20045;-57
2023/03/10 13:29:37;;;;;;;4.28;1.92;;;;;;;;;;5084096;28;20040;-57
2023/03/10 13:32:03;;;;;;;5.13;2.35;;;;;;;;;;5080416;28;20147;-57
2023/03/10 13:34:30;;;;;;;2.72;1.00;;;;;;;;;;5080529;28;20032;-57
2023/03/10 13:37:03;;;;;;;4.18;1.15;;;;;;;;;;5079113;28;20106;-57
2023/03/10 13:39:29;;;;;;;5.10;2.17;;;;;;;;;;5079913;28;20194;-57
2023/03/10 13:42:00;;;;;;;3.15;1.75;;;;;;;;;;5080892;28;20224;-57
2023/03/10 13:44:39;;;;;;;3.95;1.33;;;;;;;;;;5080884;28;20044;-57
2023/03/10 13:47:14;;;;;;;8.45;1.63;;;;;;;;;;5081746;28;20040;-58
2023/03/10 13:49:47;;;;;;;2.10;0.90;;;;;;;;;;5079689;28;20041;-57
2023/03/10 13:52:14;;;;;;;5.45;1.83;;;;;;;;;;5081823;28;20036;-57
2023/03/10 13:54:41;;;;;;;5.15;2.08;;;;;;;;;;5081600;27;20040;-57
2023/03/10 13:57:10;;;;;;;4.53;1.75;;;;;;;;;;5083396;28;20118;-57
2023/03/10 13:59:37;;;;;;;3.90;0.90;;;;;;;;;;5082859;28;20048;-57
2023/03/10 14:02:03;;;;;;;3.05;1.42;;;;;;;;;;5082896;28;20044;-57
2023/03/10 14:04:38;;;;;;;2.47;1.42;;;;;;;;;;5081517;28;20138;-57
2023/03/10 14:07:07;;;;;;;6.15;2.00;;;;;;;;;;5080766;28;20090;-57
2023/03/10 14:09:34;;;;;;;2.05;1.10;;;;;;;;;;5083850;28;20036;-57
2023/03/10 14:12:00;;;;;;;2.05;1.00;;;;;;;;;;5083803;28;20040;-57
2023/03/10 14:14:27;;;;;;;5.07;2.08;;;;;;;;;;5082974;28;20048;-57
2023/03/10 14:16:55;;;;;;;5.20;1.67;;;;;;;;;;5084203;27;20056;-57
2023/03/10 14:19:38;;;;;;;1.73;1.00;;;;;;;;;;5080392;28;20650;-57
2023/03/10 14:22:21;;;;;;;2.20;0.90;;;;;;;;;;5084755;28;20048;-57
2023/03/10 14:24:47;;;;;;;1.73;1.25;;;;;;;;;;5073542;28;20120;-57
2023/03/10 14:27:13;;;;;;;2.05;0.88;;;;;;;;;;5081819;28;20056;-57
2023/03/10 14:29:40;;;;;;;3.90;1.45;;;;;;;;;;5081328;28;20045;-57
2023/03/10 14:32:06;;;;;;;2.78;1.08;;;;;;;;;;5084377;28;20553;-57
2023/03/10 14:34:32;;;;;;;1.25;0.35;;;;;;;;;;5083620;28;20139;-56
2023/03/10 14:36:58;;;;;;;3.40;1.00;;;;;;;;;;5082630;28;20090;-57
2023/03/10 14:39:24;;;;;;;2.28;1.00;;;;;;;;;;5084495;28;20044;-57
2023/03/10 14:41:50;;;;;;;0.98;0.82;;;;;;;;;;5083226;28;20036;-57
2023/03/10 14:44:16;;;;;;;2.35;0.80;;;;;;;;;;5083021;28;20044;-57
2023/03/10 14:46:44;;;;;;;1.40;0.68;;;;;;;;;;5078207;28;20045;-57
2023/03/10 14:49:14;;;;;;;1.83;0.80;;;;;;;;;;5079228;28;20064;-57